Evans, Washington
Current Conditions -  °F | °C
As of 8:00 AM on Tuesday 27 Jan 2015 (Local Time) from CYCG Reporting Station
Moderate Fog Moderate Fog  
Wind Chill:   Ceiling: 600
Heat Index:   Visibility: 0.5mi
Dew Point:   Wind: 2mph
Humidity: 100%   Direction: 140°SE
Pressure: 30.05"   Gusts: NA
Location:  48.71°N, 118.03°W
Report Text: CYCG 271600Z 14002KT 1/2SM FG VV006 01/01 A3005 RMK FG8 SLP192
Loading
Personal Weather Stations






























Interactive Weather Map New forecast layout! Learn more

10-Day Weather Forecast

Advertisements
Track Severe Weather on mobile